Time;durP1;ratioP1;P1;durP2;ratioP2;P2;SDS_P1;SDS_P2;PMS_P1;PMS_P2;Temp;Humidity;BMP_temperature;BMP_pressure;BME280_temperature;BME280_humidity;BME280_pressure;Samples;Min_cycle;Max_cycle;Signal;HPM_P1;HPM_P2
2023/10/01 00:00:28;;;;;;;;;;;;;;;;;;5048351;28;19951;-65
2023/10/01 00:02:53;;;;;;;;;;;;;;;;;;5044201;28;19956;-64
2023/10/01 00:05:22;;;;;;;;;;;;;;;;;;5048736;28;19948;-63
2023/10/01 00:07:49;;;;;;;;;;;;;;;;;;5046539;28;19943;-64
2023/10/01 00:10:14;;;;;;;;;;;;;;;;;;5048560;28;19909;-64
2023/10/01 00:12:39;;;;;;;;;;;;;;;;;;5045530;28;19912;-64
2023/10/01 00:15:05;;;;;;;;;;;;;;;;;;5054025;28;20377;-63
2023/10/01 00:17:31;;;;;;;;;;;;;;;;;;5051322;28;20669;-64
2023/10/01 00:19:57;;;;;;;;;;;;;;;;;;5053083;28;19904;-63
2023/10/01 00:22:22;;;;;;;;;;;;;;;;;;5052296;28;19915;-64
2023/10/01 00:24:47;;;;;;;;;;;;;;;;;;5053540;28;19904;-64
2023/10/01 00:27:12;;;;;;;;;;;;;;;;;;5052647;28;20397;-63
2023/10/01 00:29:37;;;;;;;;;;;;;;;;;;5053378;28;20387;-62
2023/10/01 00:32:03;;;;;;;;;;;;;;;;;;5050715;28;19958;-64
2023/10/01 00:34:28;;;;;;;;;;;;;;;;;;5050170;28;20015;-65
2023/10/01 00:36:53;;;;;;;;;;;;;;;;;;5045330;28;20340;-65
2023/10/01 00:39:18;;;;;;;;;;;;;;;;;;5048177;28;19925;-62
2023/10/01 00:41:44;;;;;;;;;;;;;;;;;;5042193;28;20402;-62
2023/10/01 00:44:09;;;;;;;;;;;;;;;;;;5028307;28;19908;-64
2023/10/01 00:46:34;;;;;;;;;;;;;;;;;;5033826;28;19979;-64
2023/10/01 00:49:00;;;;;;;;;;;;;;;;;;5047846;28;19909;-61
2023/10/01 00:51:25;;;;;;;;;;;;;;;;;;5045149;28;19923;-64
2023/10/01 00:53:51;;;;;;;;;;;;;;;;;;5047437;28;20321;-65
2023/10/01 00:56:17;;;;;;;;;;;;;;;;;;5045101;28;19948;-61
2023/10/01 00:58:43;;;;;;;;;;;;;;;;;;5047486;28;19940;-64
2023/10/01 01:01:08;;;;;;;;;;;;;;;;;;5045372;28;20000;-64
2023/10/01 01:03:34;;;;;;;;;;;;;;;;;;5047490;28;19988;-61
2023/10/01 01:08:46;;;;;;;;;;;;;;;;;;5050578;28;20271;-63
2023/10/01 01:11:13;;;;;;;;;;;;;;;;;;5050515;28;19999;-63
2023/10/01 01:13:38;;;;;;;;;;;;;;;;;;5052117;28;19908;-62
2023/10/01 01:16:05;;;;;;;;;;;;;;;;;;5051520;28;19938;-62
2023/10/01 01:18:34;;;;;;;;;;;;;;;;;;5051173;28;19909;-62
2023/10/01 01:21:05;;;;;;;;;;;;;;;;;;5050298;28;19921;-63
2023/10/01 01:23:30;;;;;;;;;;;;;;;;;;5049154;28;19915;-62
2023/10/01 01:25:56;;;;;;;;;;;;;;;;;;5046194;28;19912;-62
2023/10/01 01:28:27;;;;;;;;;;;;;;;;;;5045613;28;20378;-63
2023/10/01 01:30:53;;;;;;;;;;;;;;;;;;5046432;28;20003;-64
2023/10/01 01:33:21;;;;;;;;;;;;;;;;;;5044896;28;20393;-64
2023/10/01 01:35:49;;;;;;;;;;;;;;;;;;5028798;28;20277;-62
2023/10/01 01:38:15;;;;;;;;;;;;;;;;;;5045644;28;19923;-65
2023/10/01 01:40:42;;;;;;;;;;;;;;;;;;5045936;28;19917;-64
2023/10/01 01:43:16;;;;;;;;;;;;;;;;;;5045309;28;20003;-64
2023/10/01 01:45:43;;;;;;;;;;;;;;;;;;5045470;28;20332;-65
2023/10/01 01:48:21;;;;;;;;;;;;;;;;;;5045895;28;19958;-62
2023/10/01 01:50:46;;;;;;;;;;;;;;;;;;5045866;28;19912;-65
2023/10/01 01:53:12;;;;;;;;;;;;;;;;;;5044992;28;20336;-61
2023/10/01 01:55:37;;;;;;;;;;;;;;;;;;5046971;28;20378;-62
2023/10/01 01:58:09;;;;;;;;;;;;;;;;;;5044027;28;19932;-62
2023/10/01 02:00:34;;;;;;;;;;;;;;;;;;5045280;28;19901;-65
2023/10/01 02:03:02;;;;;;;;;;;;;;;;;;5044271;28;19909;-63
2023/10/01 02:05:28;;;;;;;;;;;;;;;;;;5046270;28;20043;-64
2023/10/01 02:07:53;;;;;;;;;;;;;;;;;;5043458;28;19948;-65
2023/10/01 02:10:20;;;;;;;;;;;;;;;;;;5046360;28;19955;-65
2023/10/01 02:12:47;;;;;;;;;;;;;;;;;;5026968;28;20343;-64
2023/10/01 02:15:12;;;;;;;;;;;;;;;;;;5045107;28;19962;-65
2023/10/01 02:17:39;;;;;;;;;;;;;;;;;;5043327;28;19916;-61
2023/10/01 02:20:10;;;;;;;;;;;;;;;;;;5046621;28;20358;-64
2023/10/01 02:22:36;;;;;;;;;;;;;;;;;;5027116;28;20281;-62
2023/10/01 02:25:04;;;;;;;;;;;;;;;;;;5045122;28;19912;-64
2023/10/01 02:27:29;;;;;;;;;;;;;;;;;;5044490;28;19993;-64
2023/10/01 02:30:12;;;;;;;;;;;;;;;;;;5043508;28;19955;-64
2023/10/01 02:32:49;;;;;;;;;;;;;;;;;;5044551;28;20385;-63
2023/10/01 02:35:34;;;;;;;;;;;;;;;;;;5046042;28;19948;-64
2023/10/01 02:38:00;;;;;;;;;;;;;;;;;;5043145;28;19927;-64
2023/10/01 02:40:25;;;;;;;;;;;;;;;;;;5046462;28;20309;-61
2023/10/01 02:42:56;;;;;;;;;;;;;;;;;;5044830;28;20301;-64
2023/10/01 02:45:35;;;;;;;;;;;;;;;;;;5044734;28;19997;-65
2023/10/01 02:48:18;;;;;;;;;;;;;;;;;;5044273;28;19912;-63
2023/10/01 02:50:45;;;;;;;;;;;;;;;;;;5045920;28;20361;-64
2023/10/01 02:53:10;;;;;;;;;;;;;;;;;;5043093;28;19909;-64
2023/10/01 02:55:41;;;;;;;;;;;;;;;;;;5028294;28;20372;-62
2023/10/01 02:58:17;;;;;;;;;;;;;;;;;;5044306;28;20007;-64
2023/10/01 03:00:42;;;;;;;;;;;;;;;;;;5044823;28;19905;-65
2023/10/01 03:03:14;;;;;;;;;;;;;;;;;;5042844;28;19955;-63
2023/10/01 03:05:42;;;;;;;;;;;;;;;;;;5045895;28;19909;-62
2023/10/01 03:08:11;;;;;;;;;;;;;;;;;;5044405;28;19912;-64
2023/10/01 03:10:38;;;;;;;;;;;;;;;;;;5046908;28;19913;-64
2023/10/01 03:13:15;;;;;;;;;;;;;;;;;;5048082;28;19908;-63
2023/10/01 03:15:42;;;;;;;;;;;;;;;;;;5048202;28;20296;-65
2023/10/01 03:18:34;;;;;;;;;;;;;;;;;;5049500;28;19909;-63
2023/10/01 03:28:31;;;;;;;;;;;;;;;;;;5049060;28;20152;-64
2023/10/01 03:31:12;;;;;;;;;;;;;;;;;;5049354;28;20354;-64
2023/10/01 03:33:38;;;;;;;;;;;;;;;;;;5045046;28;19920;-64
2023/10/01 03:36:03;;;;;;;;;;;;;;;;;;5048007;28;20000;-63
2023/10/01 03:38:32;;;;;;;;;;;;;;;;;;5048842;28;19924;-64
2023/10/01 03:40:59;;;;;;;;;;;;;;;;;;5049242;28;19916;-62
2023/10/01 03:43:37;;;;;;;;;;;;;;;;;;5030531;28;20423;-64
2023/10/01 03:51:58;;;;;;;;;;;;;;;;;;4962369;28;19924;-64
2023/10/01 03:54:26;;;;;;;;;;;;;;;;;;4966202;28;20728;-63
2023/10/01 03:56:58;;;;;;;;;;;;;;;;;;4965715;28;20296;-62
2023/10/01 03:59:23;;;;;;;;;;;;;;;;;;4967276;28;20498;-62
2023/10/01 04:02:00;;;;;;;;;;;;;;;;;;4966338;28;20004;-64
2023/10/01 04:04:27;;;;;;;;;;;;;;;;;;4966510;28;20012;-65
2023/10/01 04:06:53;;;;;;;;;;;;;;;;;;4966239;28;19914;-62
2023/10/01 04:09:19;;;;;;;;;;;;;;;;;;4967760;28;20021;-63
2023/10/01 04:11:51;;;;;;;;;;;;;;;;;;4965859;28;19920;-63
2023/10/01 04:14:18;;;;;;;;;;;;;;;;;;4967125;28;19916;-62
2023/10/01 04:16:46;;;;;;;;;;;;;;;;;;4965916;28;19917;-65
2023/10/01 04:19:11;;;;;;;;;;;;;;;;;;4968428;28;19967;-64
2023/10/01 04:21:37;;;;;;;;;;;;;;;;;;5027666;28;19944;-61
2023/10/01 04:24:02;;;;;;;;;;;;;;;;;;5047202;28;19909;-63
2023/10/01 04:26:30;;;;;;;;;;;;;;;;;;5046734;28;20530;-63
2023/10/01 04:28:59;;;;;;;;;;;;;;;;;;5048363;28;19905;-65
2023/10/01 04:31:42;;;;;;;;;;;;;;;;;;5044612;28;19944;-64
2023/10/01 04:34:10;;;;;;;;;;;;;;;;;;5048835;28;19920;-65
2023/10/01 04:36:36;;;;;;;;;;;;;;;;;;5044993;28;19940;-62
2023/10/01 04:39:01;;;;;;;;;;;;;;;;;;5046965;28;19964;-62
2023/10/01 04:41:26;;;;;;;;;;;;;;;;;;5046444;28;19916;-64
2023/10/01 04:44:06;;;;;;;;;;;;;;;;;;5048048;28;19996;-64
2023/10/01 04:46:33;;;;;;;;;;;;;;;;;;5042895;28;19959;-63
2023/10/01 04:49:08;;;;;;;;;;;;;;;;;;5048212;28;19924;-64
2023/10/01 04:51:44;;;;;;;;;;;;;;;;;;5045820;28;19955;-63
2023/10/01 04:54:11;;;;;;;;;;;;;;;;;;5046602;28;19971;-65
2023/10/01 04:56:36;;;;;;;;;;;;;;;;;;5047174;28;19908;-63
2023/10/01 04:59:01;;;;;;;;;;;;;;;;;;5047961;28;19904;-63
2023/10/01 05:01:27;;;;;;;;;;;;;;;;;;5021656;28;19908;-62
2023/10/01 05:03:54;;;;;;;;;;;;;;;;;;5043085;28;19954;-59
2023/10/01 05:06:19;;;;;;;;;;;;;;;;;;5041949;28;19916;-61
2023/10/01 05:08:44;;;;;;;;;;;;;;;;;;5042996;28;20062;-63
2023/10/01 05:11:10;;;;;;;;;;;;;;;;;;5041524;28;20281;-63
2023/10/01 05:13:36;;;;;;;;;;;;;;;;;;5023799;28;19913;-62
2023/10/01 05:16:06;;;;;;;;;;;;;;;;;;5025789;28;19927;-61
2023/10/01 05:18:33;;;;;;;;;;;;;;;;;;5043252;28;19905;-63
2023/10/01 05:20:58;;;;;;;;;;;;;;;;;;5043154;28;19908;-63
2023/10/01 05:23:24;;;;;;;;;;;;;;;;;;5040150;28;19932;-63
2023/10/01 05:25:49;;;;;;;;;;;;;;;;;;5042962;28;19909;-62
2023/10/01 05:28:23;;;;;;;;;;;;;;;;;;5041197;28;20392;-64
2023/10/01 05:30:49;;;;;;;;;;;;;;;;;;5041353;28;19908;-64
2023/10/01 05:33:16;;;;;;;;;;;;;;;;;;5022917;28;20401;-63
2023/10/01 05:35:47;;;;;;;;;;;;;;;;;;5042757;28;19958;-65
2023/10/01 05:38:14;;;;;;;;;;;;;;;;;;5023032;28;20013;-63
2023/10/01 05:40:40;;;;;;;;;;;;;;;;;;5040584;28;19966;-60
2023/10/01 05:43:14;;;;;;;;;;;;;;;;;;5039471;28;20312;-62
2023/10/01 05:45:41;;;;;;;;;;;;;;;;;;5032703;28;19997;-57
2023/10/01 05:48:10;;;;;;;;;;;;;;;;;;5038513;28;19920;-60
2023/10/01 05:50:36;;;;;;;;;;;;;;;;;;5040878;28;20207;-64
2023/10/01 05:53:01;;;;;;;;;;;;;;;;;;5025700;28;20500;-62
2023/10/01 05:55:28;;;;;;;;;;;;;;;;;;5029472;28;19916;-61
2023/10/01 05:57:53;;;;;;;;;;;;;;;;;;5043046;28;19915;-58
2023/10/01 06:00:18;;;;;;;;;;;;;;;;;;5045780;28;19904;-66
2023/10/01 06:02:47;;;;;;;;;;;;;;;;;;5038871;28;20370;-67
2023/10/01 06:07:56;;;;;;;;;;;;;;;;;;5038725;28;20001;-61
2023/10/01 06:10:26;;;;;;;;;;;;;;;;;;5040941;28;19978;-62
2023/10/01 06:12:51;;;;;;;;;;;;;;;;;;5022588;28;20011;-59
2023/10/01 06:15:20;;;;;;;;;;;;;;;;;;5042145;28;20071;-64
2023/10/01 06:17:46;;;;;;;;;;;;;;;;;;5039645;28;19916;-63
2023/10/01 06:20:23;;;;;;;;;;;;;;;;;;5041613;28;19912;-61
2023/10/01 06:22:49;;;;;;;;;;;;;;;;;;5022489;28;20692;-68
2023/10/01 06:25:15;;;;;;;;;;;;;;;;;;5039761;28;20255;-68
2023/10/01 06:27:40;;;;;;;;;;;;;;;;;;5027594;28;19916;-67
2023/10/01 06:30:07;;;;;;;;;;;;;;;;;;5023491;28;19942;-67
2023/10/01 06:32:33;;;;;;;;;;;;;;;;;;5022176;28;20361;-67
2023/10/01 06:34:59;;;;;;;;;;;;;;;;;;5022198;28;20431;-65
2023/10/01 06:37:45;;;;;;;;;;;;;;;;;;5039007;28;19921;-61
2023/10/01 06:40:29;;;;;;;;;;;;;;;;;;5041236;28;19966;-63
2023/10/01 06:42:54;;;;;;;;;;;;;;;;;;5039280;28;19955;-66
2023/10/01 06:45:38;;;;;;;;;;;;;;;;;;5039080;28;20418;-66
2023/10/01 06:48:08;;;;;;;;;;;;;;;;;;5039627;28;19915;-66
2023/10/01 06:50:35;;;;;;;;;;;;;;;;;;5041606;28;19909;-60
2023/10/01 06:53:00;;;;;;;;;;;;;;;;;;5038235;28;19944;-61
2023/10/01 06:55:25;;;;;;;;;;;;;;;;;;5039728;28;19913;-66
2023/10/01 06:57:50;;;;;;;;;;;;;;;;;;5037971;28;19908;-64
2023/10/01 07:00:21;;;;;;;;;;;;;;;;;;5002527;28;20266;-64
2023/10/01 07:02:47;;;;;;;;;;;;;;;;;;4997237;28;19914;-65
2023/10/01 07:05:16;;;;;;;;;;;;;;;;;;4998755;28;19905;-62
2023/10/01 07:07:42;;;;;;;;;;;;;;;;;;4997284;28;19909;-66
2023/10/01 07:10:10;;;;;;;;;;;;;;;;;;4998920;28;19956;-66
2023/10/01 07:12:35;;;;;;;;;;;;;;;;;;4997108;28;20322;-67
2023/10/01 07:15:02;;;;;;;;;;;;;;;;;;4997235;28;19916;-66
2023/10/01 07:17:28;;;;;;;;;;;;;;;;;;4997034;28;20279;-60
2023/10/01 07:20:00;;;;;;;;;;;;;;;;;;4999042;28;20354;-66
2023/10/01 07:22:25;;;;;;;;;;;;;;;;;;4997391;28;19993;-61
2023/10/01 07:24:50;;;;;;;;;;;;;;;;;;4998865;28;20405;-67
2023/10/01 07:27:17;;;;;;;;;;;;;;;;;;4997285;28;19910;-64
2023/10/01 07:29:42;;;;;;;;;;;;;;;;;;4998792;28;20129;-66
2023/10/01 07:32:08;;;;;;;;;;;;;;;;;;4997765;28;20012;-62
2023/10/01 07:34:35;;;;;;;;;;;;;;;;;;5031935;28;19921;-61
2023/10/01 07:37:00;;;;;;;;;;;;;;;;;;5037741;28;19909;-64
2023/10/01 07:39:25;;;;;;;;;;;;;;;;;;5040309;28;19928;-66
2023/10/01 07:41:50;;;;;;;;;;;;;;;;;;5040058;28;19954;-66
2023/10/01 07:44:18;;;;;;;;;;;;;;;;;;5042567;28;19905;-62
2023/10/01 07:46:43;;;;;;;;;;;;;;;;;;5043315;28;19916;-65
2023/10/01 07:49:11;;;;;;;;;;;;;;;;;;5046129;28;19909;-65
2023/10/01 07:51:38;;;;;;;;;;;;;;;;;;5045587;28;19912;-60
2023/10/01 07:54:09;;;;;;;;;;;;;;;;;;5046424;28;19916;-66
2023/10/01 07:56:35;;;;;;;;;;;;;;;;;;5040317;28;20480;-62
2023/10/01 08:01:45;;;;;;;;;;;;;;;;;;5042484;28;19957;-66
2023/10/01 08:06:56;;;;;;;;;;;;;;;;;;5042356;28;19911;-63
2023/10/01 08:09:21;;;;;;;;;;;;;;;;;;5026186;28;19905;-67
2023/10/01 08:11:58;;;;;;;;;;;;;;;;;;5042422;28;19923;-66
2023/10/01 08:14:26;;;;;;;;;;;;;;;;;;5026017;28;19909;-62
2023/10/01 08:16:53;;;;;;;;;;;;;;;;;;5042286;28;19935;-63
2023/10/01 08:19:21;;;;;;;;;;;;;;;;;;5024391;28;19904;-60
2023/10/01 08:21:50;;;;;;;;;;;;;;;;;;5041213;28;20317;-66
2023/10/01 08:24:18;;;;;;;;;;;;;;;;;;5043713;28;19905;-62
2023/10/01 08:26:43;;;;;;;;;;;;;;;;;;5041969;28;20340;-66
2023/10/01 08:29:08;;;;;;;;;;;;;;;;;;5043882;28;19913;-66
2023/10/01 08:34:23;;;;;;;;;;;;;;;;;;5031967;28;19916;-64
2023/10/01 08:36:48;;;;;;;;;;;;;;;;;;5043926;28;19999;-60
2023/10/01 08:42:11;;;;;;;;;;;;;;;;;;4984507;28;19973;-66
2023/10/01 08:44:44;;;;;;;;;;;;;;;;;;4983086;28;19941;-64
2023/10/01 08:47:21;;;;;;;;;;;;;;;;;;4978845;28;19914;-66
2023/10/01 08:49:46;;;;;;;;;;;;;;;;;;4981347;28;20310;-65
2023/10/01 08:52:25;;;;;;;;;;;;;;;;;;4978433;28;19930;-65
2023/10/01 08:54:53;;;;;;;;;;;;;;;;;;4980261;28;19917;-65
2023/10/01 08:57:22;;;;;;;;;;;;;;;;;;4981132;28;19916;-65
2023/10/01 08:59:53;;;;;;;;;;;;;;;;;;4983823;28;20385;-66
2023/10/01 09:02:19;;;;;;;;;;;;;;;;;;4980430;28;19917;-64
2023/10/01 09:04:44;;;;;;;;;;;;;;;;;;4985611;28;19975;-63
2023/10/01 09:07:11;;;;;;;;;;;;;;;;;;4985654;28;19917;-61
2023/10/01 09:09:54;;;;;;;;;;;;;;;;;;4984957;28;19938;-60
2023/10/01 09:12:20;;;;;;;;;;;;;;;;;;4981637;28;19957;-65
2023/10/01 09:14:46;;;;;;;;;;;;;;;;;;4985030;28;19909;-61
2023/10/01 09:17:12;;;;;;;;;;;;;;;;;;4982356;28;20524;-61
2023/10/01 09:19:42;;;;;;;;;;;;;;;;;;5028615;28;19913;-63
2023/10/01 09:22:07;;;;;;;;;;;;;;;;;;5039012;28;20017;-65
2023/10/01 09:24:39;;;;;;;;;;;;;;;;;;5041624;28;19995;-60
2023/10/01 09:27:08;;;;;;;;;;;;;;;;;;5039129;28;19912;-63
2023/10/01 09:29:43;;;;;;;;;;;;;;;;;;5039615;28;20486;-58
2023/10/01 09:32:08;;;;;;;;;;;;;;;;;;5040479;28;20377;-63
2023/10/01 09:34:36;;;;;;;;;;;;;;;;;;5042055;28;19962;-63
2023/10/01 09:37:01;;;;;;;;;;;;;;;;;;5039887;28;19967;-64
2023/10/01 09:39:32;;;;;;;;;;;;;;;;;;5041975;28;19968;-65
2023/10/01 09:41:57;;;;;;;;;;;;;;;;;;5038803;28;19908;-64
2023/10/01 09:44:22;;;;;;;;;;;;;;;;;;5043822;28;19905;-64
2023/10/01 09:46:47;;;;;;;;;;;;;;;;;;5040618;28;19912;-66
2023/10/01 09:49:18;;;;;;;;;;;;;;;;;;5041028;28;19916;-66
2023/10/01 09:51:44;;;;;;;;;;;;;;;;;;5004993;28;19912;-61
2023/10/01 09:54:09;;;;;;;;;;;;;;;;;;5042217;28;19912;-65
2023/10/01 09:59:07;;;;;;;;;;;;;;;;;;5039344;28;19909;-61
2023/10/01 10:01:33;;;;;;;;;;;;;;;;;;5037888;28;19909;-62
2023/10/01 10:04:01;;;;;;;;;;;;;;;;;;5041801;28;20388;-65
2023/10/01 10:06:27;;;;;;;;;;;;;;;;;;5039920;28;19916;-60
2023/10/01 10:09:03;;;;;;;;;;;;;;;;;;5041858;28;20413;-67
2023/10/01 10:11:28;;;;;;;;;;;;;;;;;;5037992;28;20007;-61
2023/10/01 10:13:57;;;;;;;;;;;;;;;;;;5041433;28;20351;-62
2023/10/01 10:19:04;;;;;;;;;;;;;;;;;;5042088;28;20086;-66
2023/10/01 10:21:36;;;;;;;;;;;;;;;;;;5043635;28;19919;-65
2023/10/01 10:24:02;;;;;;;;;;;;;;;;;;5046769;28;19905;-62
2023/10/01 10:26:27;;;;;;;;;;;;;;;;;;5042722;28;19995;-62
2023/10/01 10:28:52;;;;;;;;;;;;;;;;;;5044907;28;19909;-65
2023/10/01 10:31:17;;;;;;;;;;;;;;;;;;5043568;28;20405;-65
2023/10/01 10:33:43;;;;;;;;;;;;;;;;;;5040432;28;20290;-65
2023/10/01 10:36:12;;;;;;;;;;;;;;;;;;5039860;28;20067;-64
2023/10/01 10:38:48;;;;;;;;;;;;;;;;;;5041013;28;19923;-64
2023/10/01 10:41:13;;;;;;;;;;;;;;;;;;5021155;28;20358;-65
2023/10/01 10:43:39;;;;;;;;;;;;;;;;;;5041134;28;19908;-66
2023/10/01 10:46:08;;;;;;;;;;;;;;;;;;5038751;28;19960;-61
2023/10/01 10:48:36;;;;;;;;;;;;;;;;;;5023376;28;20374;-65
2023/10/01 10:51:02;;;;;;;;;;;;;;;;;;5039956;28;19909;-61
2023/10/01 10:53:27;;;;;;;;;;;;;;;;;;5039701;28;19908;-63
2023/10/01 10:55:53;;;;;;;;;;;;;;;;;;5039231;28;19908;-66
2023/10/01 10:58:19;;;;;;;;;;;;;;;;;;5038861;28;20387;-62
2023/10/01 11:00:45;;;;;;;;;;;;;;;;;;5039700;28;19948;-65
2023/10/01 11:03:11;;;;;;;;;;;;;;;;;;5036704;28;19948;-65
2023/10/01 11:05:49;;;;;;;;;;;;;;;;;;5041059;28;19987;-65
2023/10/01 11:08:25;;;;;;;;;;;;;;;;;;5039209;28;19944;-66
2023/10/01 11:10:50;;;;;;;;;;;;;;;;;;5041128;28;19913;-65
2023/10/01 11:13:20;;;;;;;;;;;;;;;;;;5041256;28;19912;-66
2023/10/01 11:15:46;;;;;;;;;;;;;;;;;;5022319;28;19905;-65
2023/10/01 11:18:11;;;;;;;;;;;;;;;;;;5037982;28;19924;-60
2023/10/01 11:20:44;;;;;;;;;;;;;;;;;;5040815;28;19905;-61
2023/10/01 11:23:10;;;;;;;;;;;;;;;;;;5021020;28;19943;-59
2023/10/01 11:25:40;;;;;;;;;;;;;;;;;;5041011;28;19905;-60
2023/10/01 11:28:05;;;;;;;;;;;;;;;;;;5039295;28;19908;-64
2023/10/01 11:30:33;;;;;;;;;;;;;;;;;;5040132;28;20289;-63
2023/10/01 11:33:01;;;;;;;;;;;;;;;;;;5040334;28;20559;-64
2023/10/01 11:35:32;;;;;;;;;;;;;;;;;;5042786;28;20008;-65
2023/10/01 11:37:58;;;;;;;;;;;;;;;;;;5025006;28;19934;-66
2023/10/01 11:40:46;;;;;;;;;;;;;;;;;;5043034;28;20019;-64
2023/10/01 11:43:08;;;;;;;;;;;;;;;;;;5042652;28;19991;-61
2023/10/01 11:45:33;;;;;;;;;;;;;;;;;;5043286;28;19987;-63
2023/10/01 11:48:19;;;;;;;;;;;;;;;;;;5040939;28;20259;-63
2023/10/01 11:50:50;;;;;;;;;;;;;;;;;;5026468;28;19909;-66
2023/10/01 11:53:16;;;;;;;;;;;;;;;;;;5024691;28;19935;-62
2023/10/01 11:55:41;;;;;;;;;;;;;;;;;;5044267;28;20381;-60
2023/10/01 11:58:06;;;;;;;;;;;;;;;;;;5041033;28;19955;-64
2023/10/01 12:03:18;;;;;;;;;;;;;;;;;;5040486;28;19912;-61
2023/10/01 12:05:46;;;;;;;;;;;;;;;;;;5042689;28;19980;-66
2023/10/01 12:08:18;;;;;;;;;;;;;;;;;;5041977;28;19923;-64
2023/10/01 12:10:43;;;;;;;;;;;;;;;;;;5025740;28;20364;-61
2023/10/01 12:13:09;;;;;;;;;;;;;;;;;;5042143;28;20301;-62
2023/10/01 12:15:34;;;;;;;;;;;;;;;;;;5024388;28;20353;-64
2023/10/01 12:18:07;;;;;;;;;;;;;;;;;;5042963;28;20269;-61
2023/10/01 12:20:32;;;;;;;;;;;;;;;;;;5042330;28;19944;-64
2023/10/01 12:23:13;;;;;;;;;;;;;;;;;;5041201;28;19940;-65
2023/10/01 12:25:50;;;;;;;;;;;;;;;;;;5043400;28;19905;-65
2023/10/01 12:28:15;;;;;;;;;;;;;;;;;;5041366;28;19915;-63
2023/10/01 12:30:40;;;;;;;;;;;;;;;;;;5041994;28;19917;-64
2023/10/01 12:33:05;;;;;;;;;;;;;;;;;;5041148;28;19916;-65
2023/10/01 12:35:30;;;;;;;;;;;;;;;;;;5042947;28;19909;-66
2023/10/01 12:38:05;;;;;;;;;;;;;;;;;;5039469;28;20366;-67
2023/10/01 12:40:34;;;;;;;;;;;;;;;;;;5023438;28;20310;-66
2023/10/01 12:42:59;;;;;;;;;;;;;;;;;;5039272;28;19912;-66
2023/10/01 12:45:27;;;;;;;;;;;;;;;;;;5043520;28;19927;-66
2023/10/01 12:47:52;;;;;;;;;;;;;;;;;;5041587;28;19916;-65
2023/10/01 12:50:26;;;;;;;;;;;;;;;;;;5042873;28;19904;-65
2023/10/01 12:52:51;;;;;;;;;;;;;;;;;;5040798;28;19944;-64
2023/10/01 12:55:16;;;;;;;;;;;;;;;;;;5042719;28;19904;-65
2023/10/01 12:57:42;;;;;;;;;;;;;;;;;;5039574;28;20353;-66
2023/10/01 13:00:38;;;;;;;;;;;;;;;;;;5043270;28;20421;-67
2023/10/01 13:03:09;;;;;;;;;;;;;;;;;;5040660;28;20416;-65
2023/10/01 13:05:43;;;;;;;;;;;;;;;;;;5039348;28;20270;-66
2023/10/01 13:08:10;;;;;;;;;;;;;;;;;;5041346;28;19909;-64
2023/10/01 13:10:37;;;;;;;;;;;;;;;;;;5042477;28;20271;-66
2023/10/01 13:13:05;;;;;;;;;;;;;;;;;;5022850;28;20374;-66
2023/10/01 13:15:30;;;;;;;;;;;;;;;;;;5040763;28;19909;-64
2023/10/01 13:18:00;;;;;;;;;;;;;;;;;;5040393;28;20281;-67
2023/10/01 13:23:24;;;;;;;;;;;;;;;;;;4959519;28;19981;-66
2023/10/01 13:26:05;;;;;;;;;;;;;;;;;;4943636;28;19958;-62
2023/10/01 13:28:43;;;;;;;;;;;;;;;;;;4961218;28;19910;-64
2023/10/01 13:31:08;;;;;;;;;;;;;;;;;;4959749;28;19914;-66
2023/10/01 13:33:53;;;;;;;;;;;;;;;;;;4960551;28;19916;-66
2023/10/01 13:36:35;;;;;;;;;;;;;;;;;;4959291;28;19913;-63
2023/10/01 14:09:15;;;;;;;;;;;;;;;;;;4960408;28;19909;-66
2023/10/01 14:11:41;;;;;;;;;;;;;;;;;;4957909;28;19917;-67
2023/10/01 14:14:07;;;;;;;;;;;;;;;;;;4912126;28;19961;-62
2023/10/01 14:16:32;;;;;;;;;;;;;;;;;;4941847;28;19917;-65
2023/10/01 14:18:57;;;;;;;;;;;;;;;;;;4956877;28;20284;-66
2023/10/01 14:21:22;;;;;;;;;;;;;;;;;;4958078;28;19927;-67
2023/10/01 14:23:48;;;;;;;;;;;;;;;;;;4977855;28;20047;-67
2023/10/01 14:26:17;;;;;;;;;;;;;;;;;;5021836;28;20453;-62
2023/10/01 14:28:46;;;;;;;;;;;;;;;;;;5041291;28;20266;-66
2023/10/01 14:31:12;;;;;;;;;;;;;;;;;;5039407;28;20262;-66
2023/10/01 14:33:41;;;;;;;;;;;;;;;;;;5004930;28;19916;-65
2023/10/01 14:36:06;;;;;;;;;;;;;;;;;;5003725;28;19916;-65
2023/10/01 14:38:37;;;;;;;;;;;;;;;;;;5041081;28;19917;-62
2023/10/01 14:41:02;;;;;;;;;;;;;;;;;;5039211;28;19908;-62
2023/10/01 14:43:28;;;;;;;;;;;;;;;;;;5039589;28;19916;-68
2023/10/01 14:45:54;;;;;;;;;;;;;;;;;;5040984;28;20015;-66
2023/10/01 14:48:21;;;;;;;;;;;;;;;;;;5039716;28;19909;-67
2023/10/01 14:50:46;;;;;;;;;;;;;;;;;;5021308;28;19917;-61
2023/10/01 14:53:12;;;;;;;;;;;;;;;;;;5038813;28;19908;-65
2023/10/01 14:55:41;;;;;;;;;;;;;;;;;;5041006;28;20385;-66
2023/10/01 14:58:12;;;;;;;;;;;;;;;;;;4996483;28;19920;-60
2023/10/01 15:00:49;;;;;;;;;;;;;;;;;;4995597;28;19909;-67
2023/10/01 15:03:14;;;;;;;;;;;;;;;;;;4995605;28;19949;-63
2023/10/01 15:05:39;;;;;;;;;;;;;;;;;;4997548;28;19963;-64
2023/10/01 15:08:04;;;;;;;;;;;;;;;;;;4997110;28;20434;-65
2023/10/01 15:10:29;;;;;;;;;;;;;;;;;;4995221;28;20441;-67
2023/10/01 15:12:55;;;;;;;;;;;;;;;;;;4993542;28;19910;-67
2023/10/01 15:15:20;;;;;;;;;;;;;;;;;;4998404;28;19906;-62
2023/10/01 15:17:45;;;;;;;;;;;;;;;;;;4993721;28;19909;-65
2023/10/01 15:20:27;;;;;;;;;;;;;;;;;;4996796;28;20269;-65
2023/10/01 15:22:52;;;;;;;;;;;;;;;;;;4993114;28;20500;-63
2023/10/01 15:25:17;;;;;;;;;;;;;;;;;;4998461;28;19906;-62
2023/10/01 15:27:42;;;;;;;;;;;;;;;;;;4996769;28;20313;-66
2023/10/01 15:30:20;;;;;;;;;;;;;;;;;;5037123;28;19905;-68
2023/10/01 15:32:55;;;;;;;;;;;;;;;;;;5038814;28;20365;-67
2023/10/01 15:35:22;;;;;;;;;;;;;;;;;;5039806;28;19912;-67
2023/10/01 15:37:48;;;;;;;;;;;;;;;;;;5038564;28;19917;-66
2023/10/01 15:40:26;;;;;;;;;;;;;;;;;;5040121;28;19963;-63
2023/10/01 15:42:54;;;;;;;;;;;;;;;;;;5034174;28;19955;-62
2023/10/01 15:45:19;;;;;;;;;;;;;;;;;;5040662;28;19991;-64
2023/10/01 15:47:47;;;;;;;;;;;;;;;;;;5036783;28;19999;-61
2023/10/01 15:50:13;;;;;;;;;;;;;;;;;;5034172;28;19909;-66
2023/10/01 15:52:45;;;;;;;;;;;;;;;;;;5038850;28;19917;-67
2023/10/01 15:55:13;;;;;;;;;;;;;;;;;;5038956;28;19909;-66
2023/10/01 15:57:38;;;;;;;;;;;;;;;;;;5021350;28;20606;-67
2023/10/01 16:02:47;;;;;;;;;;;;;;;;;;5035864;28;19915;-62
2023/10/01 16:05:15;;;;;;;;;;;;;;;;;;5036671;28;19908;-64
2023/10/01 16:07:44;;;;;;;;;;;;;;;;;;5020963;28;19909;-67
2023/10/01 16:10:11;;;;;;;;;;;;;;;;;;5038320;28;20431;-67
2023/10/01 16:12:36;;;;;;;;;;;;;;;;;;5038112;28;19920;-62
2023/10/01 16:15:02;;;;;;;;;;;;;;;;;;5040239;28;19905;-65
2023/10/01 16:17:31;;;;;;;;;;;;;;;;;;5039672;28;20344;-66
2023/10/01 16:19:57;;;;;;;;;;;;;;;;;;5043076;28;19908;-67
2023/10/01 16:22:22;;;;;;;;;;;;;;;;;;5042190;28;19917;-66
2023/10/01 16:24:48;;;;;;;;;;;;;;;;;;5025808;28;19956;-65
2023/10/01 16:27:13;;;;;;;;;;;;;;;;;;5040638;28;20255;-62
2023/10/01 16:29:43;;;;;;;;;;;;;;;;;;5043822;28;20612;-62
2023/10/01 16:32:15;;;;;;;;;;;;;;;;;;5021068;28;19917;-63
2023/10/01 16:34:40;;;;;;;;;;;;;;;;;;5041942;28;19908;-64
2023/10/01 16:37:05;;;;;;;;;;;;;;;;;;5039789;28;20384;-65
2023/10/01 16:39:31;;;;;;;;;;;;;;;;;;5043462;28;19909;-66
2023/10/01 16:41:57;;;;;;;;;;;;;;;;;;5041573;28;19908;-67
2023/10/01 16:44:23;;;;;;;;;;;;;;;;;;5043580;28;20270;-67
2023/10/01 16:46:57;;;;;;;;;;;;;;;;;;5040264;28;19909;-65
2023/10/01 16:49:24;;;;;;;;;;;;;;;;;;5041986;28;20439;-63
2023/10/01 16:51:49;;;;;;;;;;;;;;;;;;5035850;28;19944;-63
2023/10/01 16:54:14;;;;;;;;;;;;;;;;;;5023523;28;20355;-62
2023/10/01 16:56:40;;;;;;;;;;;;;;;;;;5027366;28;20046;-66
2023/10/01 16:59:05;;;;;;;;;;;;;;;;;;5043355;28;19957;-62
2023/10/01 17:01:31;;;;;;;;;;;;;;;;;;5040257;28;19951;-64
2023/10/01 17:03:57;;;;;;;;;;;;;;;;;;5043242;28;19904;-67
2023/10/01 17:06:23;;;;;;;;;;;;;;;;;;4999110;28;19909;-61
2023/10/01 17:08:54;;;;;;;;;;;;;;;;;;5000703;28;20017;-66
2023/10/01 17:11:19;;;;;;;;;;;;;;;;;;4997793;28;21801;-61
2023/10/01 17:13:44;;;;;;;;;;;;;;;;;;5000536;28;19906;-65
2023/10/01 17:16:10;;;;;;;;;;;;;;;;;;4998746;28;19994;-66
2023/10/01 17:18:48;;;;;;;;;;;;;;;;;;5000872;28;19913;-66
2023/10/01 17:21:14;;;;;;;;;;;;;;;;;;4998929;28;19928;-62
2023/10/01 17:23:39;;;;;;;;;;;;;;;;;;5000430;28;19912;-66
2023/10/01 17:26:05;;;;;;;;;;;;;;;;;;4997925;28;19964;-60
2023/10/01 17:28:30;;;;;;;;;;;;;;;;;;4999457;28;19944;-62
2023/10/01 17:30:56;;;;;;;;;;;;;;;;;;4999196;28;19953;-67
2023/10/01 17:33:21;;;;;;;;;;;;;;;;;;4998416;28;19986;-67
2023/10/01 17:35:47;;;;;;;;;;;;;;;;;;5000166;28;20321;-62
2023/10/01 17:38:13;;;;;;;;;;;;;;;;;;5034118;28;19917;-66
2023/10/01 17:40:47;;;;;;;;;;;;;;;;;;5041240;28;20275;-60
2023/10/01 17:43:13;;;;;;;;;;;;;;;;;;5040275;28;19912;-67
2023/10/01 17:45:38;;;;;;;;;;;;;;;;;;5041131;28;20325;-63
2023/10/01 17:48:10;;;;;;;;;;;;;;;;;;5040793;28;19909;-65
2023/10/01 17:50:35;;;;;;;;;;;;;;;;;;5042473;28;20003;-61
2023/10/01 17:53:02;;;;;;;;;;;;;;;;;;5040407;28;20007;-63
2023/10/01 17:55:28;;;;;;;;;;;;;;;;;;5041434;28;19962;-65
2023/10/01 17:57:53;;;;;;;;;;;;;;;;;;5040773;28;19913;-60
2023/10/01 18:00:31;;;;;;;;;;;;;;;;;;5042219;28;19904;-64
2023/10/01 18:03:00;;;;;;;;;;;;;;;;;;5021172;28;19916;-64
2023/10/01 18:05:26;;;;;;;;;;;;;;;;;;5040106;28;20003;-66